createdAt,value
2022-12-25T00:00:39.730Z,101437.75
2022-12-25T00:01:41.168Z,101432.25
2022-12-25T00:02:42.657Z,101435.75
2022-12-25T00:03:44.433Z,101426.66
2022-12-25T00:04:46.186Z,101429.31
2022-12-25T00:05:50.348Z,101439.16
2022-12-25T00:06:51.834Z,101437.09
2022-12-25T00:07:53.242Z,101437.06
2022-12-25T00:08:54.664Z,101436.13
2022-12-25T00:09:56.108Z,101436.94
2022-12-25T00:11:03.913Z,101431.53
2022-12-25T00:12:08.113Z,101434.13
2022-12-25T00:13:09.533Z,101427.84
2022-12-25T00:14:11.006Z,101436.03
2022-12-25T00:15:12.413Z,101428.88
2022-12-25T00:16:22.826Z,101427.22
2022-12-25T00:17:24.334Z,101436.94
2022-12-25T00:18:25.910Z,101435.16
2022-12-25T00:19:27.360Z,101437.75
2022-12-25T00:20:28.828Z,101440.38
2022-12-25T00:21:30.427Z,101436.59
2022-12-25T00:22:31.891Z,101424.69
2022-12-25T00:23:34.698Z,101433.63
2022-12-25T00:24:36.167Z,101433.50
2022-12-25T00:25:42.044Z,101439.66
2022-12-25T00:26:43.445Z,101441.31
2022-12-25T00:27:44.880Z,101440.34
2022-12-25T00:28:46.399Z,101451.03
2022-12-25T00:29:47.826Z,101445.59
2022-12-25T00:30:49.434Z,101450.91
2022-12-25T00:31:50.963Z,101446.47
2022-12-25T00:32:52.463Z,101454.56
2022-12-25T00:33:56.649Z,101442.09
2022-12-25T00:34:58.104Z,101443.94
2022-12-25T00:36:02.666Z,101452.06
2022-12-25T00:37:04.444Z,101448.34
2022-12-25T00:38:05.937Z,101444.56
2022-12-25T00:39:07.325Z,101452.56
2022-12-25T00:40:09.412Z,101449.84
2022-12-25T00:41:12.499Z,101451.59
2022-12-25T00:42:20.045Z,101453.28
2022-12-25T00:43:24.457Z,101455.91
2022-12-25T00:44:25.922Z,101468.50
2022-12-25T00:45:27.400Z,101456.91
2022-12-25T00:46:28.882Z,101465.69
2022-12-25T00:47:30.396Z,101461.94
2022-12-25T00:48:32.830Z,101460.94
2022-12-25T00:49:34.271Z,101457.06
2022-12-25T00:50:38.665Z,101470.59
2022-12-25T00:51:40.283Z,101469.53
2022-12-25T00:52:41.738Z,101470.53
2022-12-25T00:53:43.163Z,101468.53
2022-12-25T00:54:44.615Z,101483.88
2022-12-25T00:55:57.946Z,101489.13
2022-12-25T00:57:08.052Z,101493.81
2022-12-25T00:58:14.429Z,101480.47
2022-12-25T00:59:16.154Z,101481.28
2022-12-25T01:00:17.720Z,101472.25
2022-12-25T01:01:19.270Z,101486.53
2022-12-25T01:02:23.978Z,101486.47
2022-12-25T01:03:26.466Z,101485.97
2022-12-25T01:04:27.936Z,101488.78
2022-12-25T01:05:29.400Z,101487.06
2022-12-25T01:06:31.260Z,101476.03
2022-12-25T01:07:32.891Z,101483.00
2022-12-25T01:08:37.110Z,101490.13
2022-12-25T01:09:57.529Z,101483.75
2022-12-25T01:11:02.756Z,101444.47
2022-12-25T01:12:04.243Z,101493.66
2022-12-25T01:13:05.732Z,101493.50
2022-12-25T01:14:07.187Z,101497.00
2022-12-25T01:15:10.707Z,101497.78
2022-12-25T01:16:12.239Z,101498.41
2022-12-25T01:17:13.884Z,101505.47
2022-12-25T01:18:15.428Z,101503.09
2022-12-25T01:19:16.816Z,101497.72
2022-12-25T01:20:19.002Z,101503.94
2022-12-25T01:21:23.726Z,101502.94
2022-12-25T01:22:25.286Z,101500.19
2022-12-25T01:23:26.715Z,101501.94
2022-12-25T01:24:28.124Z,101507.31
2022-12-25T01:25:29.552Z,101515.28
2022-12-25T01:26:30.982Z,101514.25
2022-12-25T01:27:33.405Z,101517.81
2022-12-25T01:28:35.337Z,101519.44
2022-12-25T01:29:37.853Z,101516.63
2022-12-25T01:30:40.417Z,101524.47
2022-12-25T01:31:41.903Z,101521.53
2022-12-25T01:32:43.334Z,101528.03
2022-12-25T01:33:45.566Z,101522.47
2022-12-25T01:34:50.608Z,101517.91
2022-12-25T01:35:58.528Z,101516.38
2022-12-25T01:36:59.989Z,101526.22
2022-12-25T01:38:01.428Z,101518.91
2022-12-25T01:39:03.554Z,101524.34
2022-12-25T01:40:05.193Z,101536.94
2022-12-25T01:41:06.627Z,101537.88
2022-12-25T01:42:16.449Z,101540.84
2022-12-25T01:43:24.664Z,101533.41
2022-12-25T01:44:35.055Z,101537.41
2022-12-25T01:45:41.940Z,101520.28
2022-12-25T01:46:44.118Z,101533.75
2022-12-25T01:47:45.526Z,101532.72
2022-12-25T01:48:47.164Z,101526.91
2022-12-25T01:49:50.614Z,101536.72
2022-12-25T01:50:56.155Z,101538.31
2022-12-25T01:52:03.066Z,101546.28
2022-12-25T01:53:05.807Z,101534.41
2022-12-25T01:54:13.183Z,101525.47
2022-12-25T01:55:15.408Z,101537.09
2022-12-25T01:56:16.948Z,101529.72
2022-12-25T01:57:22.642Z,101543.13
2022-12-25T01:58:25.219Z,101543.22
2022-12-25T01:59:29.169Z,101550.28
2022-12-25T02:00:31.190Z,101550.19
2022-12-25T02:01:32.734Z,101546.50
2022-12-25T02:02:35.179Z,101549.28
2022-12-25T02:03:37.023Z,101549.19
2022-12-25T02:04:43.657Z,101553.56
2022-12-25T02:05:46.244Z,101558.94
2022-12-25T02:06:51.393Z,101559.75
2022-12-25T02:07:53.646Z,101555.31
2022-12-25T02:08:55.392Z,101553.38
2022-12-25T02:09:56.806Z,101551.56
2022-12-25T02:11:04.428Z,101554.22
2022-12-25T02:12:07.531Z,101554.25
2022-12-25T02:13:09.306Z,101554.97
2022-12-25T02:14:13.790Z,101551.28
2022-12-25T02:15:18.813Z,101551.38
2022-12-25T02:16:23.534Z,101552.22
2022-12-25T02:17:35.802Z,101558.34
2022-12-25T02:18:54.604Z,101552.91
2022-12-25T02:20:33.594Z,101549.38
2022-12-25T02:22:04.571Z,101549.38
2022-12-25T02:23:43.656Z,101564.97
2022-12-25T02:24:50.110Z,101564.03
2022-12-25T02:26:03.669Z,101565.47
2022-12-25T02:27:14.007Z,101545.41
2022-12-25T02:28:32.450Z,101559.88
2022-12-25T02:29:50.480Z,101563.47
2022-12-25T02:31:01.640Z,101560.66
2022-12-25T02:32:30.178Z,101568.50
2022-12-25T02:34:03.092Z,101565.81
2022-12-25T02:35:07.477Z,101574.69
2022-12-25T02:36:13.720Z,101567.66
2022-12-25T02:37:23.345Z,101568.31
2022-12-25T02:38:32.152Z,101566.78
2022-12-25T02:39:58.023Z,101577.78
2022-12-25T02:41:06.726Z,101584.00
2022-12-25T02:42:13.573Z,101574.75
2022-12-25T02:43:46.092Z,101576.56
2022-12-25T02:45:09.859Z,101581.03
2022-12-25T02:46:34.322Z,101574.00
2022-12-25T02:47:57.032Z,101569.66
2022-12-25T02:49:21.364Z,101574.03
2022-12-25T02:50:43.148Z,101578.38
2022-12-25T02:52:14.342Z,101574.53
2022-12-25T02:53:34.365Z,101574.59
2022-12-25T02:55:02.967Z,101580.66
2022-12-25T02:56:23.309Z,101571.75
2022-12-25T02:57:48.674Z,101572.69
2022-12-25T02:59:09.125Z,101574.50
2022-12-25T03:00:36.902Z,101572.75
2022-12-25T03:01:57.319Z,101571.75
2022-12-25T03:03:19.661Z,101570.81
2022-12-25T03:04:43.486Z,101566.16
2022-12-25T03:06:04.151Z,101574.97
2022-12-25T03:07:14.546Z,101567.56
2022-12-25T03:08:24.639Z,101572.03
2022-12-25T03:09:50.459Z,101563.03
2022-12-25T03:11:22.952Z,101562.03
2022-12-25T03:12:46.354Z,101564.13
2022-12-25T03:13:51.594Z,101563.34
2022-12-25T03:15:11.638Z,101569.59
2022-12-25T03:16:31.388Z,101570.47
2022-12-25T03:17:33.564Z,101565.06
2022-12-25T03:18:35.128Z,101568.59
2022-12-25T03:19:54.898Z,101564.78
2022-12-25T03:21:15.287Z,101575.38
2022-12-25T03:22:46.724Z,101576.19
2022-12-25T03:24:13.127Z,101576.13
2022-12-25T03:25:34.374Z,101570.41
2022-12-25T03:26:54.156Z,101585.69
2022-12-25T03:27:57.195Z,101583.66
2022-12-25T03:28:58.664Z,101585.59
2022-12-25T03:30:18.943Z,101588.38
2022-12-25T03:31:30.750Z,101582.03
2022-12-25T03:32:58.524Z,101596.44
2022-12-25T03:34:30.821Z,101588.28
2022-12-25T03:35:48.918Z,101596.19
2022-12-25T03:37:15.254Z,101596.31
2022-12-25T03:38:50.410Z,101591.59
2022-12-25T03:40:28.790Z,101587.72
2022-12-25T03:41:59.660Z,101588.69
2022-12-25T03:43:51.449Z,101586.22
2022-12-25T03:45:05.668Z,101589.00
2022-12-25T03:46:28.655Z,101592.34
2022-12-25T03:47:58.152Z,101592.84
2022-12-25T03:49:29.669Z,101591.84
2022-12-25T03:50:55.549Z,101602.44
2022-12-25T03:52:19.957Z,101591.44
2022-12-25T03:53:56.500Z,101597.47
2022-12-25T03:55:18.873Z,101602.75
2022-12-25T03:56:39.085Z,101600.78
2022-12-25T03:57:59.542Z,101617.91
2022-12-25T03:59:23.509Z,101617.97
2022-12-25T04:00:43.776Z,101613.47
2022-12-25T04:02:03.596Z,101609.84
2022-12-25T04:03:23.556Z,101616.78
2022-12-25T04:04:43.425Z,101610.59
2022-12-25T04:06:03.351Z,101601.53
2022-12-25T04:07:23.260Z,101605.06
2022-12-25T04:08:43.150Z,101611.44
2022-12-25T04:10:02.973Z,101602.31
2022-12-25T04:11:22.832Z,101613.03
2022-12-25T04:12:42.600Z,101621.84
2022-12-25T04:14:02.417Z,101611.22
2022-12-25T04:15:22.862Z,101625.47
2022-12-25T04:16:42.965Z,101621.69
2022-12-25T04:18:02.766Z,101623.53
2022-12-25T04:19:22.720Z,101619.66
2022-12-25T04:20:43.092Z,101622.22
2022-12-25T04:22:02.752Z,101614.16
2022-12-25T04:23:23.240Z,101620.47
2022-12-25T04:24:44.457Z,101622.34
2022-12-25T04:26:04.360Z,101623.97
2022-12-25T04:27:24.364Z,101622.94
2022-12-25T04:28:44.286Z,101619.34
2022-12-25T04:30:04.189Z,101621.91
2022-12-25T04:31:24.825Z,101624.44
2022-12-25T04:32:45.116Z,101622.66
2022-12-25T04:34:04.852Z,101618.75
2022-12-25T04:35:27.099Z,101631.53
2022-12-25T04:36:28.525Z,101628.03
2022-12-25T04:37:30.009Z,101631.53
2022-12-25T04:38:40.076Z,101618.06
2022-12-25T04:39:41.520Z,101629.81
2022-12-25T04:40:46.061Z,101631.72
2022-12-25T04:41:50.467Z,101635.16
2022-12-25T04:42:52.612Z,101632.34
2022-12-25T04:43:53.971Z,101631.53
2022-12-25T04:44:55.362Z,101635.13
2022-12-25T04:45:59.042Z,101639.47
2022-12-25T04:47:09.119Z,101642.16
2022-12-25T04:48:25.810Z,101642.25
2022-12-25T04:49:29.896Z,101643.25
2022-12-25T04:50:31.382Z,101628.00
2022-12-25T04:51:32.815Z,101640.41
2022-12-25T04:52:39.314Z,101640.78
2022-12-25T04:53:42.303Z,101639.91
2022-12-25T04:54:43.739Z,101638.09
2022-12-25T04:55:45.377Z,101643.34
2022-12-25T04:56:46.794Z,101637.00
2022-12-25T04:57:50.936Z,101639.34
2022-12-25T04:58:56.119Z,101638.72
2022-12-25T04:59:57.503Z,101643.06
2022-12-25T05:01:02.626Z,101642.25
2022-12-25T05:02:07.043Z,101644.69
2022-12-25T05:03:08.669Z,101641.84
2022-12-25T05:04:10.264Z,101639.06
2022-12-25T05:05:11.706Z,101643.50
2022-12-25T05:06:13.164Z,101636.19
2022-12-25T05:07:14.629Z,101628.91
2022-12-25T05:08:16.324Z,101634.13
2022-12-25T05:09:17.772Z,101639.50
2022-12-25T05:10:19.254Z,101637.78
2022-12-25T05:11:20.711Z,101628.91
2022-12-25T05:12:22.137Z,101637.91
2022-12-25T05:13:24.175Z,101633.44
2022-12-25T05:14:25.597Z,101635.25
2022-12-25T05:15:27.101Z,101634.25
2022-12-25T05:16:28.783Z,101645.75
2022-12-25T05:17:30.232Z,101637.31
2022-12-25T05:18:31.789Z,101648.13
2022-12-25T05:19:33.263Z,101644.63
2022-12-25T05:20:39.689Z,101644.84
2022-12-25T05:21:41.495Z,101644.84
2022-12-25T05:22:42.924Z,101639.72
2022-12-25T05:23:52.154Z,101647.94
2022-12-25T05:24:53.567Z,101639.91
2022-12-25T05:25:55.025Z,101642.47
2022-12-25T05:26:56.455Z,101631.94
2022-12-25T05:27:57.890Z,101639.81
2022-12-25T05:28:59.325Z,101633.63
2022-12-25T05:30:00.719Z,101630.09
2022-12-25T05:31:05.454Z,101631.94
2022-12-25T05:32:06.936Z,101618.41
2022-12-25T05:33:08.349Z,101628.38
2022-12-25T05:34:09.772Z,101629.28
2022-12-25T05:35:11.222Z,101631.19
2022-12-25T05:36:13.021Z,101628.75
2022-12-25T05:37:14.457Z,101623.09
2022-12-25T05:38:15.879Z,101616.91
2022-12-25T05:39:17.287Z,101626.00
2022-12-25T05:40:18.720Z,101628.66
2022-12-25T05:41:20.279Z,101625.22
2022-12-25T05:42:21.658Z,101626.28
2022-12-25T05:43:23.954Z,101613.63
2022-12-25T05:44:25.427Z,101621.78
2022-12-25T05:45:26.846Z,101621.03
2022-12-25T05:46:31.119Z,101609.25
2022-12-25T05:47:32.589Z,101617.28
2022-12-25T05:48:36.674Z,101619.16
2022-12-25T05:49:38.150Z,101620.91
2022-12-25T05:50:39.592Z,101615.56
2022-12-25T05:51:41.489Z,101612.16
2022-12-25T05:52:42.946Z,101612.16
2022-12-25T05:53:44.369Z,101614.91
2022-12-25T05:54:45.779Z,101605.84
2022-12-25T05:55:47.247Z,101603.25
2022-12-25T05:56:48.690Z,101603.16
2022-12-25T05:57:50.131Z,101603.25
2022-12-25T05:58:54.317Z,101603.25
2022-12-25T05:59:55.783Z,101589.69
2022-12-25T06:00:57.865Z,101613.25
2022-12-25T06:02:02.608Z,101604.19
2022-12-25T06:03:04.672Z,101610.47
2022-12-25T06:04:12.151Z,101617.63
2022-12-25T06:05:14.255Z,101609.66
2022-12-25T06:06:15.801Z,101614.09
2022-12-25T06:07:17.240Z,101610.47
2022-12-25T06:08:18.753Z,101607.78
2022-12-25T06:09:20.193Z,101614.00
2022-12-25T06:10:21.762Z,101614.81
2022-12-25T06:11:23.272Z,101614.75
2022-12-25T06:12:24.748Z,101612.84
2022-12-25T06:13:26.160Z,101603.94
2022-12-25T06:14:27.585Z,101619.09
2022-12-25T06:15:29.259Z,101620.00
2022-12-25T06:16:37.678Z,101613.69
2022-12-25T06:17:39.792Z,101613.00
2022-12-25T06:18:43.814Z,101604.03
2022-12-25T06:19:45.264Z,101603.25
2022-12-25T06:20:46.695Z,101608.63
2022-12-25T06:21:48.319Z,101600.69
2022-12-25T06:22:49.769Z,101601.44
2022-12-25T06:23:51.412Z,101593.22
2022-12-25T06:24:52.931Z,101603.16
2022-12-25T06:25:54.334Z,101592.31
2022-12-25T06:26:55.810Z,101599.50
2022-12-25T06:27:57.229Z,101586.84
2022-12-25T06:28:58.768Z,101605.88
2022-12-25T06:30:00.209Z,101597.66
2022-12-25T06:31:17.230Z,101608.56
2022-12-25T06:32:18.733Z,101611.34
2022-12-25T06:33:20.177Z,101614.91
2022-12-25T06:34:21.667Z,101600.59
2022-12-25T06:35:23.081Z,101608.72
2022-12-25T06:36:26.447Z,101619.44
2022-12-25T06:37:27.875Z,101610.56
2022-12-25T06:38:33.722Z,101604.31
2022-12-25T06:39:36.399Z,101603.31
2022-12-25T06:40:41.264Z,101610.56
2022-12-25T06:41:42.728Z,101606.97
2022-12-25T06:42:44.267Z,101600.69
2022-12-25T06:43:53.924Z,101611.50
2022-12-25T06:44:55.334Z,101611.22
2022-12-25T06:45:56.798Z,101609.41
2022-12-25T06:46:58.244Z,101613.91
2022-12-25T06:47:59.695Z,101611.13
2022-12-25T06:49:01.297Z,101612.06
2022-12-25T06:50:02.888Z,101615.50
2022-12-25T06:51:05.890Z,101622.72
2022-12-25T06:52:10.406Z,101623.59
2022-12-25T06:53:11.824Z,101616.34
2022-12-25T06:54:13.417Z,101615.56
2022-12-25T06:55:14.896Z,101621.97
2022-12-25T06:56:19.073Z,101621.31
2022-12-25T06:57:20.489Z,101614.84
2022-12-25T06:58:22.522Z,101617.72
2022-12-25T06:59:23.953Z,101623.88
2022-12-25T07:00:27.180Z,101635.47
2022-12-25T07:01:47.768Z,101636.63
2022-12-25T07:02:49.834Z,101646.28
2022-12-25T07:04:03.107Z,101649.97
2022-12-25T07:05:05.204Z,101644.53
2022-12-25T07:06:06.623Z,101633.72
2022-12-25T07:07:09.808Z,101650.88
2022-12-25T07:08:11.409Z,101643.69
2022-12-25T07:09:13.076Z,101647.22
2022-12-25T07:10:14.584Z,101645.44
2022-12-25T07:11:16.227Z,101651.63
2022-12-25T07:12:21.519Z,101648.03
2022-12-25T07:13:22.937Z,101657.84
2022-12-25T07:14:24.780Z,101647.28
2022-12-25T07:15:28.658Z,101654.75
2022-12-25T07:16:30.166Z,101646.81
2022-12-25T07:17:34.401Z,101648.69
2022-12-25T07:18:35.898Z,101648.94
2022-12-25T07:19:44.421Z,101648.78
2022-12-25T07:20:46.485Z,101653.13
2022-12-25T07:21:47.980Z,101654.06
2022-12-25T07:22:49.405Z,101662.28
2022-12-25T07:23:50.963Z,101666.03
2022-12-25T07:24:52.388Z,101654.44
2022-12-25T07:25:58.362Z,101666.13
2022-12-25T07:26:59.896Z,101660.69
2022-12-25T07:28:01.309Z,101659.78
2022-12-25T07:29:02.774Z,101649.81
2022-12-25T07:30:04.873Z,101656.16
2022-12-25T07:31:10.021Z,101665.16
2022-12-25T07:32:11.814Z,101661.78
2022-12-25T07:33:13.352Z,101658.38
2022-12-25T07:34:17.251Z,101660.22
2022-12-25T07:35:18.717Z,101665.53
2022-12-25T07:36:20.820Z,101669.47
2022-12-25T07:37:22.280Z,101669.41
2022-12-25T07:38:23.675Z,101667.06
2022-12-25T07:39:25.073Z,101663.53
2022-12-25T07:40:26.492Z,101666.16
2022-12-25T07:41:27.892Z,101671.53
2022-12-25T07:42:29.283Z,101659.91
2022-12-25T07:43:30.711Z,101670.78
2022-12-25T07:44:32.095Z,101673.47
2022-12-25T07:45:33.568Z,101663.66
2022-12-25T07:46:35.034Z,101672.69
2022-12-25T07:47:36.451Z,101672.78
2022-12-25T07:48:37.857Z,101669.38
2022-12-25T07:49:39.279Z,101671.13
2022-12-25T07:50:40.698Z,101669.53
2022-12-25T07:51:42.205Z,101662.44
2022-12-25T07:52:44.064Z,101657.94
2022-12-25T07:53:45.711Z,101659.88
2022-12-25T07:54:47.186Z,101664.34
2022-12-25T07:55:48.595Z,101663.50
2022-12-25T07:56:52.258Z,101660.81
2022-12-25T07:57:53.701Z,101653.72
2022-12-25T07:58:55.146Z,101654.59
2022-12-25T07:59:56.531Z,101652.97
2022-12-25T08:01:04.631Z,101656.72
2022-12-25T08:02:06.687Z,101659.47
2022-12-25T08:03:08.536Z,101659.50
2022-12-25T08:04:11.575Z,101658.06
2022-12-25T08:05:13.114Z,101660.00
2022-12-25T08:06:14.530Z,101658.16
2022-12-25T08:07:15.946Z,101660.00
2022-12-25T08:08:17.392Z,101667.28
2022-12-25T08:09:18.844Z,101662.00
2022-12-25T08:10:20.277Z,101654.91
2022-12-25T08:11:22.020Z,101656.72
2022-12-25T08:12:23.447Z,101655.13
2022-12-25T08:13:24.852Z,101662.41
2022-12-25T08:14:26.585Z,101660.66
2022-12-25T08:15:32.661Z,101662.72
2022-12-25T08:16:34.862Z,101662.66
2022-12-25T08:17:36.314Z,101655.59
2022-12-25T08:18:39.680Z,101667.28
2022-12-25T08:19:41.114Z,101662.88
2022-12-25T08:20:42.532Z,101662.88
2022-12-25T08:21:43.933Z,101662.75
2022-12-25T08:22:50.921Z,101661.06
2022-12-25T08:23:52.410Z,101656.59
2022-12-25T08:24:53.834Z,101661.13
2022-12-25T08:26:05.500Z,101643.28
2022-12-25T08:27:08.535Z,101639.81
2022-12-25T08:28:09.960Z,101647.97
2022-12-25T08:29:14.676Z,101648.16
2022-12-25T08:30:16.221Z,101636.56
2022-12-25T08:31:28.733Z,101643.13
2022-12-25T08:32:33.674Z,101641.34
2022-12-25T08:33:35.696Z,101633.06
2022-12-25T08:34:39.945Z,101642.19
2022-12-25T08:35:41.416Z,101645.94
2022-12-25T08:36:42.906Z,101646.84
2022-12-25T08:37:44.357Z,101640.28
2022-12-25T08:38:46.552Z,101649.56
2022-12-25T08:39:47.998Z,101645.16
2022-12-25T08:40:49.397Z,101648.72
2022-12-25T08:41:50.862Z,101640.72
2022-12-25T08:42:52.295Z,101636.28
2022-12-25T08:43:53.845Z,101632.72
2022-12-25T08:44:55.322Z,101638.97
2022-12-25T08:45:56.897Z,101621.75
2022-12-25T08:46:58.414Z,101640.88
2022-12-25T08:47:59.953Z,101635.50
2022-12-25T08:49:01.392Z,101627.44
2022-12-25T08:50:02.997Z,101633.72
2022-12-25T08:51:04.700Z,101639.88
2022-12-25T08:52:08.133Z,101631.81
2022-12-25T08:53:09.546Z,101627.19
2022-12-25T08:54:11.043Z,101630.06
2022-12-25T08:55:12.491Z,101615.47
2022-12-25T08:56:14.949Z,101628.16
2022-12-25T08:57:16.401Z,101616.53
2022-12-25T08:58:17.877Z,101615.47
2022-12-25T08:59:19.384Z,101619.13
2022-12-25T09:00:23.962Z,101613.69
2022-12-25T09:01:25.685Z,101608.19
2022-12-25T09:02:27.424Z,101615.31
2022-12-25T09:03:32.127Z,101604.66
2022-12-25T09:04:33.679Z,101614.53
2022-12-25T09:05:36.418Z,101617.22
2022-12-25T09:06:38.094Z,101615.47
2022-12-25T09:07:39.553Z,101613.56
2022-12-25T09:08:48.086Z,101610.03
2022-12-25T09:09:50.362Z,101611.03
2022-12-25T09:10:51.773Z,101602.81
2022-12-25T09:11:53.209Z,101606.56
2022-12-25T09:12:54.636Z,101595.72
2022-12-25T09:13:56.116Z,101602.78
2022-12-25T09:14:57.528Z,101597.50
2022-12-25T09:15:59.349Z,101602.00
2022-12-25T09:17:00.826Z,101598.50
2022-12-25T09:18:02.285Z,101594.25
2022-12-25T09:19:03.796Z,101604.00
2022-12-25T09:20:06.620Z,101601.25
2022-12-25T09:21:11.437Z,101603.88
2022-12-25T09:22:12.820Z,101602.09
2022-12-25T09:23:14.563Z,101590.44
2022-12-25T09:24:16.045Z,101600.47
2022-12-25T09:25:17.576Z,101599.63
2022-12-25T09:26:19.605Z,101609.47
2022-12-25T09:27:21.407Z,101602.31
2022-12-25T09:28:22.877Z,101603.25
2022-12-25T09:29:24.611Z,101585.22
2022-12-25T09:30:26.082Z,101585.31
2022-12-25T09:31:27.548Z,101606.22
2022-12-25T09:32:29.016Z,101608.91
2022-12-25T09:33:30.676Z,101600.75
2022-12-25T09:34:32.138Z,101597.28
2022-12-25T09:35:33.631Z,101599.22
2022-12-25T09:36:35.064Z,101601.97
2022-12-25T09:37:36.768Z,101597.56
2022-12-25T09:38:38.309Z,101599.34
2022-12-25T09:39:46.092Z,101597.66
2022-12-25T09:40:48.404Z,101605.00
2022-12-25T09:41:58.589Z,101597.06
2022-12-25T09:43:02.510Z,101599.84
2022-12-25T09:44:10.239Z,101604.63
2022-12-25T09:45:21.984Z,101599.28
2022-12-25T09:46:33.067Z,101599.34
2022-12-25T09:47:42.362Z,101582.28
2022-12-25T09:49:01.191Z,101586.00
2022-12-25T09:50:21.461Z,101595.19
2022-12-25T09:51:25.737Z,101590.81
2022-12-25T09:52:54.569Z,101589.84
2022-12-25T09:54:04.455Z,101589.88
2022-12-25T09:55:19.700Z,101588.94
2022-12-25T09:56:25.914Z,101597.22
2022-12-25T09:57:27.405Z,101585.41
2022-12-25T09:58:31.854Z,101580.16
2022-12-25T09:59:33.323Z,101587.38
2022-12-25T10:00:47.202Z,101578.53
2022-12-25T10:02:10.247Z,101584.84
2022-12-25T10:03:31.553Z,101596.78
2022-12-25T10:04:47.929Z,101595.13
2022-12-25T10:06:30.866Z,101588.19
2022-12-25T10:07:38.051Z,101578.34
2022-12-25T10:08:49.484Z,101586.59
2022-12-25T10:10:22.049Z,101590.44
2022-12-25T10:11:54.800Z,101586.91
2022-12-25T10:13:22.082Z,101592.25
2022-12-25T10:14:35.707Z,101588.63
2022-12-25T10:15:49.228Z,101583.91
2022-12-25T10:17:21.513Z,101585.06
2022-12-25T10:18:33.757Z,101580.53
2022-12-25T10:20:17.656Z,101577.97
2022-12-25T10:21:20.489Z,101583.47
2022-12-25T10:22:42.363Z,101577.25
2022-12-25T10:23:51.513Z,101567.34
2022-12-25T10:24:55.782Z,101572.97
2022-12-25T10:25:57.309Z,101572.16
2022-12-25T10:27:03.227Z,101574.84
2022-12-25T10:28:14.506Z,101574.81
2022-12-25T10:29:22.036Z,101581.91
2022-12-25T10:30:26.509Z,101584.78
2022-12-25T10:31:30.103Z,101576.34
2022-12-25T10:32:32.703Z,101570.34
2022-12-25T10:33:34.149Z,101564.06
2022-12-25T10:34:38.575Z,101571.41
2022-12-25T10:35:40.621Z,101575.81
2022-12-25T10:36:44.690Z,101565.97
2022-12-25T10:37:53.343Z,101562.41
2022-12-25T10:38:55.909Z,101567.91
2022-12-25T10:39:57.454Z,101571.41
2022-12-25T10:41:37.881Z,101560.69
2022-12-25T10:42:46.143Z,101551.84
2022-12-25T10:43:51.769Z,101555.66
2022-12-25T10:45:04.412Z,101555.59
2022-12-25T10:46:13.437Z,101549.25
2022-12-25T10:47:24.394Z,101554.63
2022-12-25T10:48:29.236Z,101542.88
2022-12-25T10:49:34.691Z,101544.56
2022-12-25T10:50:43.163Z,101541.75
2022-12-25T10:51:44.679Z,101536.31
2022-12-25T10:53:00.616Z,101534.53
2022-12-25T10:54:03.967Z,101529.19
2022-12-25T10:55:13.520Z,101532.00
2022-12-25T10:56:18.794Z,101533.88
2022-12-25T10:57:23.507Z,101552.06
2022-12-25T10:58:25.152Z,101552.16
2022-12-25T10:59:29.724Z,101558.56
2022-12-25T11:00:32.635Z,101556.78
2022-12-25T11:01:34.357Z,101550.56
2022-12-25T11:02:40.175Z,101553.16
2022-12-25T11:03:46.544Z,101546.19
2022-12-25T11:04:48.546Z,101551.69
2022-12-25T11:05:51.644Z,101549.03
2022-12-25T11:06:58.503Z,101544.53
2022-12-25T11:08:02.434Z,101546.38
2022-12-25T11:09:04.027Z,101539.25
2022-12-25T11:10:19.012Z,101534.78
2022-12-25T11:11:24.016Z,101534.78
2022-12-25T11:12:36.899Z,101542.00
2022-12-25T11:13:49.904Z,101542.09
2022-12-25T11:14:54.177Z,101535.91
2022-12-25T11:16:09.686Z,101536.84
2022-12-25T11:17:21.569Z,101541.41
2022-12-25T11:18:28.943Z,101537.84
2022-12-25T11:19:32.388Z,101546.16
2022-12-25T11:20:33.928Z,101546.13
2022-12-25T11:21:37.420Z,101553.38
2022-12-25T11:22:45.762Z,101535.31
2022-12-25T11:23:49.691Z,101542.50
2022-12-25T11:24:51.688Z,101543.44
2022-12-25T11:26:07.277Z,101537.16
2022-12-25T11:27:28.143Z,101538.06
2022-12-25T11:28:32.703Z,101531.78
2022-12-25T11:29:42.891Z,101529.91
2022-12-25T11:30:48.277Z,101517.25
2022-12-25T11:31:52.717Z,101519.03
2022-12-25T11:32:56.231Z,101527.19
2022-12-25T11:34:05.425Z,101530.84
2022-12-25T11:35:13.255Z,101532.75
2022-12-25T11:36:34.919Z,101532.78
2022-12-25T11:37:43.410Z,101530.13
2022-12-25T11:38:47.866Z,101524.72
2022-12-25T11:39:49.369Z,101520.25
2022-12-25T11:41:01.074Z,101521.13
2022-12-25T11:42:17.467Z,101526.66
2022-12-25T11:43:34.949Z,101512.16
2022-12-25T11:45:00.706Z,101507.69
2022-12-25T11:46:17.434Z,101496.94
2022-12-25T11:47:24.467Z,101486.97
2022-12-25T11:48:40.562Z,101482.53
2022-12-25T11:50:00.220Z,101461.84
2022-12-25T11:51:05.736Z,101467.25
2022-12-25T11:52:11.403Z,101457.22
2022-12-25T11:53:32.675Z,101464.50
2022-12-25T11:54:47.077Z,101467.28
2022-12-25T11:55:57.126Z,101460.00
2022-12-25T11:57:03.864Z,101447.50
2022-12-25T11:58:21.609Z,101427.66
2022-12-25T11:59:29.032Z,101436.72
2022-12-25T12:00:33.372Z,101434.94
2022-12-25T12:01:50.034Z,101433.19
2022-12-25T12:03:01.824Z,101427.75
2022-12-25T12:04:08.393Z,101432.44
2022-12-25T12:05:22.095Z,101424.34
2022-12-25T12:06:35.399Z,101420.75
2022-12-25T12:07:39.864Z,101419.03
2022-12-25T12:08:42.682Z,101416.31
2022-12-25T12:10:02.197Z,101428.03
2022-12-25T12:11:16.112Z,101430.78
2022-12-25T12:12:36.748Z,101435.34
2022-12-25T12:13:53.983Z,101433.50
2022-12-25T12:15:19.411Z,101430.84
2022-12-25T12:16:20.940Z,101435.44
2022-12-25T12:17:22.457Z,101431.81
2022-12-25T12:18:26.859Z,101425.53
2022-12-25T12:19:30.471Z,101433.75
2022-12-25T12:20:34.691Z,101439.16
2022-12-25T12:21:36.381Z,101417.47
2022-12-25T12:22:38.052Z,101436.44
2022-12-25T12:24:07.589Z,101435.63
2022-12-25T12:25:16.896Z,101429.34
2022-12-25T12:26:21.577Z,101421.19
2022-12-25T12:27:37.474Z,101413.16
2022-12-25T12:28:48.011Z,101408.63
2022-12-25T12:29:59.827Z,101410.50
2022-12-25T12:31:06.869Z,101406.91
2022-12-25T12:32:22.072Z,101395.16
2022-12-25T12:33:27.990Z,101403.34
2022-12-25T12:34:37.702Z,101397.00
2022-12-25T12:35:40.479Z,101387.03
2022-12-25T12:36:42.026Z,101383.41
2022-12-25T12:37:46.163Z,101396.91
2022-12-25T12:38:49.355Z,101399.63
2022-12-25T12:39:54.181Z,101399.63
2022-12-25T12:40:55.504Z,101404.97
2022-12-25T12:41:57.000Z,101410.41
2022-12-25T12:42:59.127Z,101402.38
2022-12-25T12:44:03.323Z,101406.91
2022-12-25T12:45:30.180Z,101405.06
2022-12-25T12:46:39.877Z,101401.47